Sklinnabanken — LJQM — position and weather

sailwx.info

Track history (hours):
 
Tides and Currents Weather Stations Pressure Air Temp Water Temp Dewpoint Dewpoint Depression Visibility Wind Speed Wind Dir Waves Ship Positions

Sklinnabanken

Last reported at 2016-Apr-30 09:18 UTC. Time now 2016-May-01 02:19 UTC.
Position N 69°19' E 017°59'.

Length 28 m; draft 6 m.

Type: Fishing. MMSI: 259648000.

Date/timePositionNaut miles runAvg speedWind from/ knotsBaromVisibWave heightAir tempDewpointWater temp
2016-Apr-30 09:18N 69°19' E 017°59'6 8.6
2016-Apr-30 08:33N 69°13' E 018°00'8 7.8
2016-Apr-30 07:33N 69°08' E 017°42'13 8.7
2016-Apr-30 06:03N 68°59' E 017°14'97 8.8
2016-Apr-29 19:07N 67°44' E 014°31'6 9.2
2016-Apr-29 18:28N 67°38' E 014°31'8 9.2
2016-Apr-29 17:33N 67°30' E 014°29'9 9.4
2016-Apr-29 16:33N 67°20' E 014°23'3 3.1
2016-Apr-29 15:34N 67°17' E 014°23'0 0.3
2016-Apr-29 14:34N 67°17' E 014°23'9 9.1
2016-Apr-29 13:34N 67°11' E 014°05'10 9.6
2016-Apr-29 12:34N 67°03' E 013°51'9 9.4
2016-Apr-29 11:34N 66°58' E 013°31'16 7.0
2016-Apr-29 09:20N 66°44' E 013°12'16 9.0
2016-Apr-29 07:33N 66°29' E 012°59'10 9.5
2016-Apr-29 06:28N 66°19' E 012°56'9 9.0
2016-Apr-29 05:28N 66°10' E 012°50'8 8.8
2016-Apr-29 04:34N 66°04' E 012°38'44 8.6
2016-Apr-28 23:29N 65°22' E 012°05'9 9.3
2016-Apr-28 22:33N 65°15' E 011°55'9 9.2
2016-Apr-28 21:33N 65°06' E 011°48'9 9.1
2016-Apr-28 20:33N 64°59' E 011°35'9 9.2
2016-Apr-28 19:34N 64°53' E 011°18'9 9.0
2016-Apr-28 18:33N 64°47' E 011°03'55 8.8
2016-Apr-28 12:20N 63°60' E 009°57'7 9.3
2016-Apr-28 11:33N 63°54' E 009°46'9 9.4
2016-Apr-28 10:34N 63°47' E 009°34'9 9.2
2016-Apr-28 09:34N 63°38' E 009°28'9 8.6
2016-Apr-28 08:34N 63°32' E 009°14'  
Track history (hours):
 
Tides and Currents Weather Stations Pressure Air Temp Water Temp Dewpoint Dewpoint Depression Visibility Wind Speed Wind Dir Waves Ship Positions

Sklinnabanken

Last reported at 2016-Apr-30 09:18 UTC. Time now 2016-May-01 02:19 UTC.
Position N 69°19' E 017°59'.

Length 28 m; draft 6 m.

Type: Fishing. MMSI: 259648000.

Date/timePositionNaut miles runAvg speedWind from/ knotsBaromVisibWave heightAir tempDewpointWater temp
2016-Apr-30 09:18N 69°19' E 017°59'6 8.6
2016-Apr-30 08:33N 69°13' E 018°00'8 7.8
2016-Apr-30 07:33N 69°08' E 017°42'13 8.7
2016-Apr-30 06:03N 68°59' E 017°14'97 8.8
2016-Apr-29 19:07N 67°44' E 014°31'6 9.2
2016-Apr-29 18:28N 67°38' E 014°31'8 9.2
2016-Apr-29 17:33N 67°30' E 014°29'9 9.4
2016-Apr-29 16:33N 67°20' E 014°23'3 3.1
2016-Apr-29 15:34N 67°17' E 014°23'0 0.3
2016-Apr-29 14:34N 67°17' E 014°23'9 9.1
2016-Apr-29 13:34N 67°11' E 014°05'10 9.6
2016-Apr-29 12:34N 67°03' E 013°51'9 9.4
2016-Apr-29 11:34N 66°58' E 013°31'16 7.0
2016-Apr-29 09:20N 66°44' E 013°12'16 9.0
2016-Apr-29 07:33N 66°29' E 012°59'10 9.5
2016-Apr-29 06:28N 66°19' E 012°56'9 9.0
2016-Apr-29 05:28N 66°10' E 012°50'8 8.8
2016-Apr-29 04:34N 66°04' E 012°38'44 8.6
2016-Apr-28 23:29N 65°22' E 012°05'9 9.3
2016-Apr-28 22:33N 65°15' E 011°55'9 9.2
2016-Apr-28 21:33N 65°06' E 011°48'9 9.1
2016-Apr-28 20:33N 64°59' E 011°35'9 9.2
2016-Apr-28 19:34N 64°53' E 011°18'9 9.0
2016-Apr-28 18:33N 64°47' E 011°03'55 8.8
2016-Apr-28 12:20N 63°60' E 009°57'7 9.3
2016-Apr-28 11:33N 63°54' E 009°46'9 9.4
2016-Apr-28 10:34N 63°47' E 009°34'9 9.2
2016-Apr-28 09:34N 63°38' E 009°28'9 8.6
2016-Apr-28 08:34N 63°32' E 009°14'  

Dump ship's entire track history